Time;durP1;ratioP1;P1;durP2;ratioP2;P2;SDS_P1;SDS_P2;PMS_P1;PMS_P2;Temp;Humidity;BMP_temperature;BMP_pressure;BME280_temperature;BME280_humidity;BME280_pressure;Samples;Min_cycle;Max_cycle;Signal;HPM_P1;HPM_P2
2024/02/25 00:02:02;;;;;;;3.33;1.70;;;;;;;;;;7347213;19;20403;-44
2024/02/25 00:04:31;;;;;;;6.00;1.90;;;;;;;;;;7324505;19;20823;-44
2024/02/25 00:07:03;;;;;;;4.23;1.93;;;;;;;;;;7347095;19;20419;-44
2024/02/25 00:09:32;;;;;;;4.93;2.20;;;;;;;;;;7317793;19;21107;-43
2024/02/25 00:12:02;;;;;;;6.10;2.63;;;;;;;;;;7348398;19;20792;-44
2024/02/25 00:14:32;;;;;;;2.57;1.47;;;;;;;;;;7325486;19;20415;-43
2024/02/25 00:17:01;;;;;;;2.77;2.03;;;;;;;;;;7346004;19;20487;-43
2024/02/25 00:19:31;;;;;;;5.43;3.13;;;;;;;;;;7322641;19;20576;-44
2024/02/25 00:22:00;;;;;;;4.07;1.80;;;;;;;;;;7347629;19;20409;-42
2024/02/25 00:24:32;;;;;;;5.90;2.00;;;;;;;;;;7325424;19;20580;-42
2024/02/25 00:27:01;;;;;;;2.83;1.90;;;;;;;;;;7346794;19;20809;-46
2024/02/25 00:29:31;;;;;;;2.83;1.93;;;;;;;;;;7324350;19;20464;-43
2024/02/25 00:32:00;;;;;;;5.43;2.67;;;;;;;;;;7347585;19;20474;-41
2024/02/25 00:34:32;;;;;;;4.60;2.50;;;;;;;;;;7327075;19;20518;-43
2024/02/25 00:37:02;;;;;;;3.27;1.93;;;;;;;;;;7345938;19;20403;-41
2024/02/25 00:39:34;;;;;;;5.07;2.10;;;;;;;;;;7324923;19;21376;-44
2024/02/25 00:42:03;;;;;;;4.80;1.87;;;;;;;;;;7347049;19;20792;-41
2024/02/25 00:44:35;;;;;;;2.80;1.70;;;;;;;;;;7324188;19;20431;-41
2024/02/25 00:47:05;;;;;;;2.90;1.77;;;;;;;;;;7346321;19;20410;-42
2024/02/25 00:49:35;;;;;;;7.93;3.00;;;;;;;;;;7325643;19;20986;-43
2024/02/25 00:52:04;;;;;;;23.77;9.53;;;;;;;;;;7347465;19;20403;-42
2024/02/25 00:54:37;;;;;;;4.20;2.80;;;;;;;;;;7323391;19;20506;-41
2024/02/25 00:57:06;;;;;;;5.63;2.40;;;;;;;;;;7345891;19;20478;-41
2024/02/25 00:59:36;;;;;;;4.50;2.50;;;;;;;;;;7321655;19;20595;-41
2024/02/25 01:02:05;;;;;;;9.10;2.37;;;;;;;;;;7346224;19;20852;-41
2024/02/25 01:04:34;;;;;;;8.70;3.97;;;;;;;;;;7324395;19;20466;-42
2024/02/25 01:07:04;;;;;;;4.63;2.03;;;;;;;;;;7346112;19;20431;-42
2024/02/25 01:09:33;;;;;;;4.43;2.20;;;;;;;;;;7323848;19;20441;-41
2024/02/25 01:12:05;;;;;;;3.93;2.03;;;;;;;;;;7347531;19;20427;-42
2024/02/25 01:14:35;;;;;;;5.13;1.70;;;;;;;;;;7324141;19;20431;-41
2024/02/25 01:17:04;;;;;;;3.13;1.70;;;;;;;;;;7345665;19;20411;-42
2024/02/25 01:19:34;;;;;;;3.00;1.40;;;;;;;;;;7323564;19;20472;-43
2024/02/25 01:22:03;;;;;;;3.90;2.17;;;;;;;;;;7346497;19;20403;-42
2024/02/25 01:24:33;;;;;;;3.63;1.90;;;;;;;;;;7323424;19;20787;-41
2024/02/25 01:27:02;;;;;;;4.70;2.17;;;;;;;;;;7346790;19;20407;-43
2024/02/25 01:29:34;;;;;;;3.27;1.50;;;;;;;;;;7323154;19;20451;-43
2024/02/25 01:32:04;;;;;;;4.87;2.20;;;;;;;;;;7347138;19;20403;-41
2024/02/25 01:34:33;;;;;;;3.80;2.07;;;;;;;;;;7323468;19;20508;-42
2024/02/25 01:37:04;;;;;;;4.60;1.93;;;;;;;;;;7345327;19;20403;-42
2024/02/25 01:39:34;;;;;;;2.53;1.70;;;;;;;;;;7322719;19;20459;-41
2024/02/25 01:42:04;;;;;;;8.63;2.80;;;;;;;;;;7345828;19;20406;-42
2024/02/25 01:44:38;;;;;;;4.10;2.00;;;;;;;;;;7322793;19;20947;-41
2024/02/25 01:47:08;;;;;;;4.23;2.00;;;;;;;;;;7344716;19;20419;-43
2024/02/25 01:49:37;;;;;;;4.67;1.73;;;;;;;;;;7318236;19;20953;-41
2024/02/25 01:52:07;;;;;;;2.53;1.43;;;;;;;;;;7345946;19;20486;-41
2024/02/25 01:54:37;;;;;;;3.50;2.07;;;;;;;;;;7321644;19;20387;-41
2024/02/25 01:57:07;;;;;;;4.40;2.63;;;;;;;;;;7343838;19;20495;-42
2024/02/25 01:59:39;;;;;;;7.30;2.30;;;;;;;;;;7322546;19;20563;-43
2024/02/25 02:02:13;;;;;;;4.43;2.03;;;;;;;;;;7345180;19;20838;-43
2024/02/25 02:04:43;;;;;;;2.80;1.90;;;;;;;;;;7323764;19;21072;-43
2024/02/25 02:07:12;;;;;;;2.40;1.70;;;;;;;;;;7344482;19;20411;-43
2024/02/25 02:09:42;;;;;;;4.20;1.83;;;;;;;;;;7322733;19;20506;-45
2024/02/25 02:12:11;;;;;;;3.00;1.90;;;;;;;;;;7346134;19;20407;-43
2024/02/25 02:14:43;;;;;;;7.13;3.17;;;;;;;;;;7323110;19;20411;-43
2024/02/25 02:17:12;;;;;;;3.57;1.93;;;;;;;;;;7344033;19;20442;-43
2024/02/25 02:19:46;;;;;;;3.77;2.30;;;;;;;;;;7320813;19;20399;-42
2024/02/25 02:22:18;;;;;;;5.33;2.53;;;;;;;;;;7345165;19;20403;-42
2024/02/25 02:24:48;;;;;;;2.63;2.10;;;;;;;;;;7322759;19;20383;-42
2024/02/25 02:27:17;;;;;;;3.57;2.60;;;;;;;;;;7325604;19;20438;-41
2024/02/25 02:29:47;;;;;;;3.20;2.10;;;;;;;;;;7344743;19;20752;-44
2024/02/25 02:32:16;;;;;;;3.77;2.83;;;;;;;;;;7339166;19;20434;-40
2024/02/25 02:34:46;;;;;;;4.00;2.37;;;;;;;;;;7344121;19;20417;-43
2024/02/25 02:37:15;;;;;;;3.90;2.57;;;;;;;;;;7343754;19;20511;-42
2024/02/25 02:39:47;;;;;;;4.00;2.03;;;;;;;;;;7322338;19;20400;-43
2024/02/25 02:42:17;;;;;;;5.57;2.47;;;;;;;;;;7334411;19;20843;-41
2024/02/25 02:44:48;;;;;;;6.03;2.87;;;;;;;;;;7343661;19;20379;-43
2024/02/25 02:47:17;;;;;;;4.30;2.60;;;;;;;;;;7327856;19;20536;-41
2024/02/25 02:49:47;;;;;;;5.77;3.27;;;;;;;;;;7346481;19;20420;-41
2024/02/25 02:52:16;;;;;;;4.10;2.67;;;;;;;;;;7339615;19;20456;-41
2024/02/25 02:54:48;;;;;;;2.83;2.30;;;;;;;;;;7336761;19;20399;-41
2024/02/25 02:57:18;;;;;;;5.90;2.80;;;;;;;;;;7320185;19;20742;-42
2024/02/25 02:59:47;;;;;;;6.73;3.17;;;;;;;;;;7342738;19;20475;-41
2024/02/25 03:02:17;;;;;;;5.17;2.83;;;;;;;;;;7334309;19;20395;-41
2024/02/25 03:04:46;;;;;;;5.93;3.07;;;;;;;;;;7343785;19;20399;-41
2024/02/25 03:07:16;;;;;;;4.33;3.20;;;;;;;;;;7341698;19;20423;-43
2024/02/25 03:09:45;;;;;;;4.40;2.90;;;;;;;;;;7321909;19;20423;-41
2024/02/25 03:12:17;;;;;;;5.87;2.93;;;;;;;;;;7344096;19;20470;-41
2024/02/25 03:14:47;;;;;;;4.80;2.20;;;;;;;;;;7322451;19;20395;-41
2024/02/25 03:17:19;;;;;;;3.93;3.37;;;;;;;;;;7338439;19;20407;-39
2024/02/25 03:19:48;;;;;;;6.10;3.30;;;;;;;;;;7341590;19;20787;-41
2024/02/25 03:22:17;;;;;;;3.63;2.70;;;;;;;;;;7325311;19;20399;-41
2024/02/25 03:24:47;;;;;;;5.73;2.60;;;;;;;;;;7342298;19;20420;-42
2024/02/25 03:27:19;;;;;;;3.90;2.67;;;;;;;;;;7332262;19;20439;-42
2024/02/25 03:29:49;;;;;;;5.67;2.90;;;;;;;;;;7342850;19;20470;-44
2024/02/25 03:32:18;;;;;;;4.33;2.90;;;;;;;;;;7319680;19;20428;-43
2024/02/25 03:34:48;;;;;;;7.43;2.43;;;;;;;;;;7342872;19;20399;-42
2024/02/25 03:37:17;;;;;;;4.00;2.30;;;;;;;;;;7325016;19;20427;-41
2024/02/25 03:39:47;;;;;;;5.40;3.00;;;;;;;;;;7341632;19;20393;-44
2024/02/25 03:42:16;;;;;;;3.27;2.30;;;;;;;;;;7336204;19;20424;-40
2024/02/25 03:44:48;;;;;;;4.60;2.40;;;;;;;;;;7341749;19;20379;-42
2024/02/25 03:47:18;;;;;;;5.90;3.00;;;;;;;;;;7321866;19;20403;-44
2024/02/25 03:49:47;;;;;;;3.47;2.17;;;;;;;;;;7338825;19;20403;-42
2024/02/25 03:52:16;;;;;;;3.70;2.30;;;;;;;;;;7334795;19;20403;-40
2024/02/25 03:54:47;;;;;;;5.97;2.40;;;;;;;;;;7343652;19;20391;-42
2024/02/25 03:57:17;;;;;;;3.20;2.20;;;;;;;;;;7341963;19;20794;-40
2024/02/25 03:59:48;;;;;;;4.30;2.23;;;;;;;;;;7347308;19;20414;-42
2024/02/25 04:02:18;;;;;;;9.13;2.40;;;;;;;;;;7327665;19;20934;-40
2024/02/25 04:04:48;;;;;;;5.20;2.00;;;;;;;;;;7348335;19;20403;-43
2024/02/25 04:07:17;;;;;;;3.03;2.20;;;;;;;;;;7330008;19;20403;-41
2024/02/25 04:09:47;;;;;;;7.93;2.80;;;;;;;;;;7348457;19;20471;-41
2024/02/25 04:12:16;;;;;;;3.33;1.83;;;;;;;;;;7346268;19;20783;-41
2024/02/25 04:14:49;;;;;;;2.77;1.73;;;;;;;;;;7349336;19;20469;-42
2024/02/25 04:17:18;;;;;;;3.03;2.10;;;;;;;;;;7325185;19;20395;-40
2024/02/25 04:19:48;;;;;;;2.43;1.50;;;;;;;;;;7347901;19;20744;-41
2024/02/25 04:22:17;;;;;;;3.67;1.80;;;;;;;;;;7335355;19;20403;-42
2024/02/25 04:24:47;;;;;;;3.67;1.80;;;;;;;;;;7342658;19;20391;-42
2024/02/25 04:27:16;;;;;;;5.83;2.37;;;;;;;;;;7345457;19;20407;-42
2024/02/25 04:29:48;;;;;;;4.13;1.70;;;;;;;;;;7326256;19;20471;-42
2024/02/25 04:32:18;;;;;;;4.47;2.20;;;;;;;;;;7328539;19;20407;-40
2024/02/25 04:34:47;;;;;;;4.07;1.97;;;;;;;;;;7347154;19;20959;-43
2024/02/25 04:37:17;;;;;;;2.37;1.70;;;;;;;;;;7340475;19;20413;-41
2024/02/25 04:39:46;;;;;;;3.60;2.63;;;;;;;;;;7345098;19;20455;-42
2024/02/25 04:42:16;;;;;;;5.83;2.10;;;;;;;;;;7347255;19;20407;-43
2024/02/25 04:44:45;;;;;;;4.13;1.80;;;;;;;;;;7326173;19;20462;-41
2024/02/25 04:47:17;;;;;;;3.40;1.63;;;;;;;;;;7346933;19;20453;-42
2024/02/25 04:49:47;;;;;;;2.77;1.80;;;;;;;;;;7325704;19;20404;-43
2024/02/25 04:52:17;;;;;;;3.13;1.80;;;;;;;;;;7339968;19;20487;-40
2024/02/25 04:54:46;;;;;;;2.23;1.53;;;;;;;;;;7346081;19;20736;-42
2024/02/25 04:57:15;;;;;;;2.73;1.30;;;;;;;;;;7347136;19;20613;-42
2024/02/25 04:59:45;;;;;;;4.80;1.50;;;;;;;;;;7325176;19;20391;-40
2024/02/25 05:02:14;;;;;;;2.47;1.50;;;;;;;;;;7346807;19;20459;-43
2024/02/25 05:04:46;;;;;;;2.97;1.50;;;;;;;;;;7324195;19;20399;-42
2024/02/25 05:07:16;;;;;;;1.60;1.00;;;;;;;;;;7347544;19;20506;-42
2024/02/25 05:09:45;;;;;;;2.13;1.43;;;;;;;;;;7325022;19;20403;-42
2024/02/25 05:12:16;;;;;;;2.03;1.60;;;;;;;;;;7346770;19;20514;-41
2024/02/25 05:14:46;;;;;;;3.00;1.47;;;;;;;;;;7326903;19;20431;-41
2024/02/25 05:17:15;;;;;;;2.90;1.47;;;;;;;;;;7346533;19;20470;-41
2024/02/25 05:19:47;;;;;;;3.17;1.80;;;;;;;;;;7324323;19;20510;-43
2024/02/25 05:22:16;;;;;;;2.30;1.50;;;;;;;;;;7342218;19;20471;-42
2024/02/25 05:24:46;;;;;;;3.60;1.80;;;;;;;;;;7346106;19;20403;-42
2024/02/25 05:27:15;;;;;;;5.43;1.90;;;;;;;;;;7345799;19;20494;-41
2024/02/25 05:29:45;;;;;;;5.87;1.87;;;;;;;;;;7324089;19;20950;-41
2024/02/25 05:32:15;;;;;;;3.10;1.37;;;;;;;;;;7346545;19;20411;-41
2024/02/25 05:34:45;;;;;;;3.40;1.93;;;;;;;;;;7326110;19;20489;-42
2024/02/25 05:37:20;;;;;;;5.73;1.30;;;;;;;;;;7345736;19;20831;-43
2024/02/25 05:39:50;;;;;;;5.00;2.10;;;;;;;;;;7323979;19;20410;-42
2024/02/25 05:42:19;;;;;;;4.33;1.50;;;;;;;;;;7323651;19;20486;-40
2024/02/25 05:44:49;;;;;;;3.20;1.27;;;;;;;;;;7345197;19;20511;-41
2024/02/25 05:47:18;;;;;;;3.50;1.30;;;;;;;;;;7322781;19;20487;-40
2024/02/25 05:49:48;;;;;;;3.30;1.60;;;;;;;;;;7342405;19;20401;-43
2024/02/25 05:52:19;;;;;;;2.10;1.20;;;;;;;;;;7336142;19;21046;-43
2024/02/25 05:54:49;;;;;;;2.83;1.20;;;;;;;;;;7343298;19;20758;-41
2024/02/25 05:57:19;;;;;;;1.90;0.93;;;;;;;;;;7321904;19;20429;-42
2024/02/25 05:59:49;;;;;;;13.77;2.27;;;;;;;;;;7344281;19;20437;-41
2024/02/25 06:02:18;;;;;;;3.47;1.57;;;;;;;;;;7320606;19;20374;-42
2024/02/25 06:04:48;;;;;;;4.07;1.73;;;;;;;;;;7345984;19;20420;-42
2024/02/25 06:07:20;;;;;;;2.43;1.30;;;;;;;;;;7329293;19;20415;-41
2024/02/25 06:09:49;;;;;;;7.13;1.40;;;;;;;;;;7343733;19;20399;-42
2024/02/25 06:12:19;;;;;;;2.63;1.20;;;;;;;;;;7322446;19;20407;-42
2024/02/25 06:14:49;;;;;;;5.97;1.77;;;;;;;;;;7345938;19;20966;-41
2024/02/25 06:17:20;;;;;;;1.90;1.10;;;;;;;;;;7319592;19;20430;-42
2024/02/25 06:19:50;;;;;;;5.70;1.40;;;;;;;;;;7344152;19;20416;-42
2024/02/25 06:22:22;;;;;;;4.07;1.50;;;;;;;;;;7322694;19;20403;-41
2024/02/25 06:24:52;;;;;;;4.23;1.50;;;;;;;;;;7343894;19;20403;-42
2024/02/25 06:27:21;;;;;;;4.30;1.33;;;;;;;;;;7321444;19;20490;-43
2024/02/25 06:29:50;;;;;;;3.93;1.27;;;;;;;;;;7339973;19;20985;-40
2024/02/25 06:32:20;;;;;;;2.63;1.27;;;;;;;;;;7320608;19;20411;-45
2024/02/25 06:34:49;;;;;;;3.63;1.30;;;;;;;;;;7342943;19;20395;-43
2024/02/25 06:37:18;;;;;;;4.80;1.27;;;;;;;;;;7320372;19;20407;-42
2024/02/25 06:39:53;;;;;;;4.53;1.47;;;;;;;;;;7342667;19;21003;-45
2024/02/25 06:42:22;;;;;;;2.63;1.73;;;;;;;;;;7321213;19;20399;-45
2024/02/25 06:44:52;;;;;;;4.83;1.60;;;;;;;;;;7342739;19;20400;-46
2024/02/25 06:47:21;;;;;;;2.50;1.40;;;;;;;;;;7320183;19;20419;-42
2024/02/25 06:49:52;;;;;;;4.13;1.67;;;;;;;;;;7340058;19;20438;-43
2024/02/25 06:52:21;;;;;;;6.20;1.93;;;;;;;;;;7319066;19;20801;-42
2024/02/25 06:54:54;;;;;;;2.87;1.37;;;;;;;;;;7343423;19;20420;-43
2024/02/25 06:57:23;;;;;;;2.57;1.40;;;;;;;;;;7320176;19;21193;-42
2024/02/25 06:59:52;;;;;;;3.20;1.03;;;;;;;;;;7342707;19;20878;-41
2024/02/25 07:02:22;;;;;;;4.73;1.77;;;;;;;;;;7319656;19;20796;-45
2024/02/25 07:04:51;;;;;;;4.20;1.20;;;;;;;;;;7341801;19;20395;-41
2024/02/25 07:07:21;;;;;;;5.33;1.50;;;;;;;;;;7319651;19;20383;-45
2024/02/25 07:09:57;;;;;;;3.27;1.80;;;;;;;;;;7342356;19;20430;-45
2024/02/25 07:12:27;;;;;;;3.57;1.30;;;;;;;;;;7320344;19;20411;-44
2024/02/25 07:14:56;;;;;;;2.23;1.30;;;;;;;;;;7342725;19;20769;-46
2024/02/25 07:17:26;;;;;;;1.93;1.37;;;;;;;;;;7320341;19;20423;-42
2024/02/25 07:19:55;;;;;;;3.10;1.70;;;;;;;;;;7341970;19;20402;-42
2024/02/25 07:22:25;;;;;;;4.27;1.10;;;;;;;;;;7317609;19;20427;-44
2024/02/25 07:24:57;;;;;;;5.77;2.00;;;;;;;;;;7344665;19;20409;-43
2024/02/25 07:27:26;;;;;;;2.53;1.40;;;;;;;;;;7319435;19;20778;-42
2024/02/25 07:29:55;;;;;;;3.10;1.13;;;;;;;;;;7347636;19;20411;-43
2024/02/25 07:32:27;;;;;;;2.47;1.30;;;;;;;;;;7329231;19;20434;-44
2024/02/25 07:34:58;;;;;;;2.20;1.30;;;;;;;;;;7348286;19;20399;-42
2024/02/25 07:37:27;;;;;;;4.60;2.17;;;;;;;;;;7328083;19;20488;-45
2024/02/25 07:40:00;;;;;;;1.87;1.20;;;;;;;;;;7347740;19;20419;-44
2024/02/25 07:42:29;;;;;;;4.40;1.57;;;;;;;;;;7327033;19;20407;-43
2024/02/25 07:44:59;;;;;;;2.87;1.23;;;;;;;;;;7347055;19;20466;-45
2024/02/25 07:47:28;;;;;;;3.87;1.60;;;;;;;;;;7323267;19;20431;-44
2024/02/25 07:49:59;;;;;;;2.37;1.23;;;;;;;;;;7351841;19;20518;-44
2024/02/25 07:52:29;;;;;;;6.00;2.50;;;;;;;;;;7325602;19;20407;-41
2024/02/25 07:55:01;;;;;;;10.47;4.20;;;;;;;;;;7349594;19;20487;-43
2024/02/25 07:57:33;;;;;;;3.00;1.77;;;;;;;;;;7325944;19;20954;-45
2024/02/25 08:00:04;;;;;;;2.03;1.30;;;;;;;;;;7347766;19;20479;-43
2024/02/25 08:02:36;;;;;;;2.53;1.30;;;;;;;;;;7326718;19;20451;-45
2024/02/25 08:05:06;;;;;;;6.67;3.17;;;;;;;;;;7348136;19;20882;-47
2024/02/25 08:07:35;;;;;;;3.70;2.00;;;;;;;;;;7325536;19;20458;-42
2024/02/25 08:10:08;;;;;;;5.70;1.60;;;;;;;;;;7346995;19;20456;-45
2024/02/25 08:12:39;;;;;;;5.00;1.47;;;;;;;;;;7326942;19;20443;-46
2024/02/25 08:15:08;;;;;;;2.37;1.30;;;;;;;;;;7348185;19;20423;-46
2024/02/25 08:17:38;;;;;;;4.90;1.63;;;;;;;;;;7324927;19;20925;-41
2024/02/25 08:20:08;;;;;;;5.90;2.23;;;;;;;;;;7346498;19;20843;-45
2024/02/25 08:22:40;;;;;;;3.70;1.57;;;;;;;;;;7324803;19;20904;-42
2024/02/25 08:25:12;;;;;;;2.63;1.23;;;;;;;;;;7347663;19;20468;-47
2024/02/25 08:27:42;;;;;;;2.07;1.13;;;;;;;;;;7326429;19;20828;-45
2024/02/25 08:30:12;;;;;;;5.17;1.50;;;;;;;;;;7348480;19;20442;-45
2024/02/25 08:32:42;;;;;;;2.10;1.00;;;;;;;;;;7325862;19;20398;-42
2024/02/25 08:35:11;;;;;;;2.57;1.30;;;;;;;;;;7346999;19;20802;-45
2024/02/25 08:37:41;;;;;;;2.33;1.33;;;;;;;;;;7324305;19;20391;-44
2024/02/25 08:40:13;;;;;;;1.80;0.80;;;;;;;;;;7345205;19;20534;-43
2024/02/25 08:42:42;;;;;;;3.30;1.23;;;;;;;;;;7323990;19;20391;-41
2024/02/25 08:45:12;;;;;;;2.90;1.53;;;;;;;;;;7349794;19;20487;-44
2024/02/25 08:47:41;;;;;;;2.67;1.20;;;;;;;;;;7324017;19;20407;-44
2024/02/25 08:50:12;;;;;;;3.03;1.23;;;;;;;;;;7347297;19;20991;-48
2024/02/25 08:52:42;;;;;;;2.27;1.40;;;;;;;;;;7324337;19;20391;-46
2024/02/25 08:55:14;;;;;;;3.67;1.40;;;;;;;;;;7346479;19;20422;-43
2024/02/25 08:57:43;;;;;;;6.07;1.80;;;;;;;;;;7326563;19;20503;-47
2024/02/25 09:00:14;;;;;;;4.13;1.83;;;;;;;;;;7345813;19;20435;-44
2024/02/25 09:02:44;;;;;;;3.70;1.40;;;;;;;;;;7324678;19;20399;-45
2024/02/25 09:05:13;;;;;;;3.00;1.43;;;;;;;;;;7346405;19;20411;-42
2024/02/25 09:07:43;;;;;;;3.47;1.40;;;;;;;;;;7324074;19;20419;-44
2024/02/25 09:10:18;;;;;;;3.50;1.23;;;;;;;;;;7344895;19;20447;-47
2024/02/25 09:12:48;;;;;;;4.97;1.50;;;;;;;;;;7324532;19;20834;-44
2024/02/25 09:15:19;;;;;;;2.13;1.30;;;;;;;;;;7330207;19;20495;-43
2024/02/25 09:17:54;;;;;;;4.63;1.60;;;;;;;;;;7346543;19;20399;-42
2024/02/25 09:20:24;;;;;;;3.90;1.50;;;;;;;;;;7322829;19;20534;-48
2024/02/25 09:22:53;;;;;;;7.70;2.70;;;;;;;;;;7346079;19;20433;-45
2024/02/25 09:25:30;;;;;;;6.80;2.17;;;;;;;;;;7323120;19;20405;-44
2024/02/25 09:28:00;;;;;;;2.40;1.60;;;;;;;;;;7345328;19;20779;-45
2024/02/25 09:30:29;;;;;;;4.03;1.87;;;;;;;;;;7322449;19;20430;-47
2024/02/25 09:32:58;;;;;;;3.20;1.63;;;;;;;;;;7345013;19;20479;-44
2024/02/25 09:35:28;;;;;;;7.63;1.80;;;;;;;;;;7322104;19;20551;-44
2024/02/25 09:37:58;;;;;;;2.90;1.53;;;;;;;;;;7345502;19;20395;-45
2024/02/25 09:40:30;;;;;;;5.43;1.50;;;;;;;;;;7321848;19;20441;-48
2024/02/25 09:43:00;;;;;;;3.70;1.27;;;;;;;;;;7343681;19;20411;-48
2024/02/25 09:45:34;;;;;;;4.63;1.33;;;;;;;;;;7321876;19;20482;-48
2024/02/25 09:48:04;;;;;;;2.30;1.20;;;;;;;;;;7345845;19;20427;-45
2024/02/25 09:50:36;;;;;;;5.37;1.60;;;;;;;;;;7346098;19;20593;-48
2024/02/25 09:53:06;;;;;;;14.30;4.33;;;;;;;;;;7344425;19;20945;-48
2024/02/25 09:55:38;;;;;;;4.90;1.10;;;;;;;;;;7321341;19;20432;-47
2024/02/25 09:58:07;;;;;;;5.57;1.77;;;;;;;;;;7345696;19;20423;-50
2024/02/25 10:00:38;;;;;;;8.93;2.60;;;;;;;;;;7322293;19;20396;-52
2024/02/25 10:03:08;;;;;;;2.80;1.17;;;;;;;;;;7344131;19;20423;-50
2024/02/25 10:05:38;;;;;;;4.47;2.00;;;;;;;;;;7322789;19;20383;-47
2024/02/25 10:08:10;;;;;;;12.33;1.77;;;;;;;;;;7343668;19;20406;-47
2024/02/25 10:10:42;;;;;;;10.87;3.30;;;;;;;;;;7321100;19;20419;-49
2024/02/25 10:13:12;;;;;;;2.80;1.40;;;;;;;;;;7343814;19;20411;-50
2024/02/25 10:15:41;;;;;;;4.83;1.60;;;;;;;;;;7321727;19;20388;-49
2024/02/25 10:18:12;;;;;;;5.43;1.30;;;;;;;;;;7343677;19;21010;-50
2024/02/25 10:20:41;;;;;;;2.50;1.27;;;;;;;;;;7321743;19;20403;-51
2024/02/25 10:23:13;;;;;;;8.27;3.30;;;;;;;;;;7343345;19;20403;-45
2024/02/25 10:25:45;;;;;;;2.90;1.30;;;;;;;;;;7322953;19;20471;-50
2024/02/25 10:28:16;;;;;;;2.60;1.23;;;;;;;;;;7343916;19;20403;-48
2024/02/25 10:31:04;;;;;;;6.87;2.50;;;;;;;;;;7321776;19;20442;-58
2024/02/25 10:33:33;;;;;;;9.07;3.23;;;;;;;;;;7321244;19;20494;-59
2024/02/25 10:36:07;;;;;;;4.13;1.23;;;;;;;;;;7343811;19;20812;-56
2024/02/25 10:38:40;;;;;;;2.43;1.00;;;;;;;;;;7320998;19;20894;-60
2024/02/25 10:41:12;;;;;;;3.00;1.30;;;;;;;;;;7343446;19;21030;-60
2024/02/25 10:43:42;;;;;;;3.63;1.40;;;;;;;;;;7321067;19;20423;-60
2024/02/25 10:46:16;;;;;;;3.10;1.33;;;;;;;;;;7341730;19;20443;-60
2024/02/25 10:48:46;;;;;;;4.43;1.60;;;;;;;;;;7316224;19;20390;-62
2024/02/25 10:51:16;;;;;;;3.70;1.67;;;;;;;;;;7341931;19;20443;-60
2024/02/25 10:53:45;;;;;;;3.87;1.30;;;;;;;;;;7320507;19;20487;-59
2024/02/25 10:56:20;;;;;;;3.60;1.90;;;;;;;;;;7342936;19;20895;-63
2024/02/25 10:58:51;;;;;;;4.70;2.00;;;;;;;;;;7323032;19;20808;-60
2024/02/25 11:01:21;;;;;;;6.07;2.27;;;;;;;;;;7320003;19;20427;-59
2024/02/25 11:03:51;;;;;;;14.60;5.23;;;;;;;;;;7345430;19;20492;-60
2024/02/25 11:06:31;;;;;;;5.20;1.40;;;;;;;;;;7326530;19;20410;-60
2024/02/25 11:09:05;;;;;;;13.50;4.00;;;;;;;;;;7348983;19;20779;-57
2024/02/25 11:11:37;;;;;;;4.43;1.60;;;;;;;;;;7326516;19;20447;-62
2024/02/25 11:14:07;;;;;;;6.20;1.33;;;;;;;;;;7348743;19;20482;-59
2024/02/25 11:16:40;;;;;;;5.67;2.40;;;;;;;;;;7326526;19;22712;-59
2024/02/25 11:19:10;;;;;;;6.00;1.90;;;;;;;;;;7348661;19;20502;-59
2024/02/25 11:21:39;;;;;;;3.10;1.10;;;;;;;;;;7327646;19;20434;-57
2024/02/25 11:24:12;;;;;;;2.60;1.00;;;;;;;;;;7347323;19;20411;-57
2024/02/25 11:26:44;;;;;;;3.37;1.30;;;;;;;;;;7327456;19;20827;-59
2024/02/25 11:29:21;;;;;;;9.80;3.47;;;;;;;;;;7349442;19;20395;-58
2024/02/25 11:31:54;;;;;;;2.77;1.30;;;;;;;;;;7327105;19;20406;-62
2024/02/25 11:34:23;;;;;;;2.70;1.10;;;;;;;;;;7325948;19;20407;-62
2024/02/25 11:36:53;;;;;;;2.70;1.30;;;;;;;;;;7348551;19;20419;-55
2024/02/25 11:39:26;;;;;;;8.43;3.20;;;;;;;;;;7325386;19;20498;-56
2024/02/25 11:42:02;;;;;;;4.00;1.90;;;;;;;;;;7349208;19;20436;-59
2024/02/25 11:44:32;;;;;;;14.13;4.57;;;;;;;;;;7323629;19;20458;-61
2024/02/25 11:47:02;;;;;;;6.23;2.80;;;;;;;;;;7348428;19;20407;-61
2024/02/25 11:49:33;;;;;;;9.70;3.70;;;;;;;;;;7325015;19;20430;-58
2024/02/25 11:52:04;;;;;;;3.90;1.67;;;;;;;;;;7349140;19;20414;-59
2024/02/25 11:54:34;;;;;;;12.80;4.80;;;;;;;;;;7324784;19;20587;-58
2024/02/25 11:57:06;;;;;;;19.60;3.80;;;;;;;;;;7347159;19;20410;-57
2024/02/25 11:59:37;;;;;;;4.90;1.80;;;;;;;;;;7326656;19;20419;-59
2024/02/25 12:02:07;;;;;;;3.20;1.10;;;;;;;;;;7348257;19;20455;-58
2024/02/25 12:04:36;;;;;;;2.20;1.03;;;;;;;;;;7324805;19;20776;-58
2024/02/25 12:07:07;;;;;;;3.70;1.20;;;;;;;;;;7347751;19;20407;-59
2024/02/25 12:09:38;;;;;;;3.40;1.10;;;;;;;;;;7325086;19;22078;-59
2024/02/25 12:12:10;;;;;;;14.80;4.30;;;;;;;;;;7350020;19;20439;-61
2024/02/25 12:14:40;;;;;;;3.23;1.57;;;;;;;;;;7323452;19;20407;-57
2024/02/25 12:17:13;;;;;;;2.30;0.80;;;;;;;;;;7346862;19;20966;-59
2024/02/25 12:19:42;;;;;;;4.10;1.70;;;;;;;;;;7328060;19;20743;-61
2024/02/25 12:22:12;;;;;;;4.43;1.13;;;;;;;;;;7347327;19;20407;-60
2024/02/25 12:24:42;;;;;;;3.50;1.40;;;;;;;;;;7325164;19;20426;-60
2024/02/25 12:27:20;;;;;;;4.07;1.00;;;;;;;;;;7347602;19;20447;-57
2024/02/25 12:29:50;;;;;;;6.43;2.20;;;;;;;;;;7325930;19;20426;-59
2024/02/25 12:32:20;;;;;;;5.63;2.30;;;;;;;;;;7324399;19;20994;-60
2024/02/25 12:34:50;;;;;;;9.73;3.53;;;;;;;;;;7346314;19;20971;-59
2024/02/25 12:37:20;;;;;;;17.07;7.53;;;;;;;;;;7325414;19;20431;-61
2024/02/25 12:39:50;;;;;;;14.10;6.63;;;;;;;;;;7347249;19;20434;-60
2024/02/25 12:42:23;;;;;;;3.50;1.50;;;;;;;;;;7325381;19;20527;-60
2024/02/25 12:44:52;;;;;;;8.93;5.07;;;;;;;;;;7346416;19;20760;-60
2024/02/25 12:47:22;;;;;;;3.93;1.73;;;;;;;;;;7322771;19;20994;-60
2024/02/25 12:49:51;;;;;;;5.53;2.30;;;;;;;;;;7347227;19;20419;-61
2024/02/25 12:52:21;;;;;;;4.67;2.30;;;;;;;;;;7326495;19;20447;-61
2024/02/25 12:54:50;;;;;;;5.57;1.60;;;;;;;;;;7345615;19;20418;-58
2024/02/25 12:57:22;;;;;;;8.30;2.53;;;;;;;;;;7324339;19;20404;-62
2024/02/25 12:59:52;;;;;;;4.07;2.03;;;;;;;;;;7347454;19;20990;-61
2024/02/25 13:02:21;;;;;;;3.07;1.60;;;;;;;;;;7325047;19;20421;-60
2024/02/25 13:04:51;;;;;;;10.20;3.97;;;;;;;;;;7346060;19;20470;-60
2024/02/25 13:07:20;;;;;;;5.73;2.00;;;;;;;;;;7324474;19;20407;-58
2024/02/25 13:09:50;;;;;;;3.53;1.70;;;;;;;;;;7347529;19;20415;-62
2024/02/25 13:12:19;;;;;;;2.73;1.80;;;;;;;;;;7325855;19;21303;-61
2024/02/25 13:14:51;;;;;;;3.60;1.80;;;;;;;;;;7346353;19;20403;-59
2024/02/25 13:17:21;;;;;;;3.77;1.80;;;;;;;;;;7323978;19;20415;-61
2024/02/25 13:19:50;;;;;;;2.43;1.07;;;;;;;;;;7345256;19;20445;-60
2024/02/25 13:22:21;;;;;;;3.93;2.13;;;;;;;;;;7325508;19;20436;-58
2024/02/25 13:24:51;;;;;;;3.20;1.23;;;;;;;;;;7345338;19;20407;-55
2024/02/25 13:27:20;;;;;;;5.23;1.70;;;;;;;;;;7322493;19;20486;-61
2024/02/25 13:29:55;;;;;;;2.13;1.23;;;;;;;;;;7347094;19;20470;-59
2024/02/25 13:32:24;;;;;;;6.80;2.30;;;;;;;;;;7323938;19;20426;-61
2024/02/25 13:34:55;;;;;;;5.07;1.33;;;;;;;;;;7344471;19;20469;-60
2024/02/25 13:37:25;;;;;;;5.13;1.93;;;;;;;;;;7321838;19;20479;-58
2024/02/25 13:39:54;;;;;;;4.50;1.93;;;;;;;;;;7345016;19;20461;-58
2024/02/25 13:42:24;;;;;;;5.50;1.73;;;;;;;;;;7323584;19;20507;-57
2024/02/25 13:44:56;;;;;;;5.67;1.97;;;;;;;;;;7345976;19;20411;-55
2024/02/25 13:47:26;;;;;;;4.57;1.70;;;;;;;;;;7322052;19;20508;-55
2024/02/25 13:49:55;;;;;;;7.10;1.60;;;;;;;;;;7345103;19;20427;-57
2024/02/25 13:52:24;;;;;;;2.53;1.27;;;;;;;;;;7323786;19;20451;-59
2024/02/25 13:54:54;;;;;;;1.63;0.73;;;;;;;;;;7345776;19;20420;-54
2024/02/25 13:57:24;;;;;;;1.63;0.73;;;;;;;;;;7323549;19;20407;-56
2024/02/25 13:59:53;;;;;;;1.67;0.70;;;;;;;;;;7346242;19;20442;-55
2024/02/25 14:02:27;;;;;;;3.10;1.33;;;;;;;;;;7324630;19;20969;-56
2024/02/25 14:04:56;;;;;;;1.70;0.80;;;;;;;;;;7343547;19;20403;-58
2024/02/25 14:07:26;;;;;;;13.33;4.23;;;;;;;;;;7321679;19;20427;-58
2024/02/25 14:09:57;;;;;;;38.73;11.43;;;;;;;;;;7344754;19;20431;-59
2024/02/25 14:12:26;;;;;;;29.33;9.70;;;;;;;;;;7322083;19;20434;-59
2024/02/25 14:14:56;;;;;;;3.57;0.90;;;;;;;;;;7343775;19;20455;-58
2024/02/25 14:17:28;;;;;;;2.30;0.90;;;;;;;;;;7319825;19;20498;-58
2024/02/25 14:19:57;;;;;;;2.40;1.17;;;;;;;;;;7344345;19;20423;-59
2024/02/25 14:22:27;;;;;;;3.53;1.07;;;;;;;;;;7322088;19;20523;-59
2024/02/25 14:24:56;;;;;;;3.77;1.63;;;;;;;;;;7339395;19;20407;-58
2024/02/25 14:27:26;;;;;;;2.40;1.13;;;;;;;;;;7318903;19;20478;-58
2024/02/25 14:29:55;;;;;;;2.20;1.20;;;;;;;;;;7341026;19;20806;-57
2024/02/25 14:32:28;;;;;;;9.73;4.23;;;;;;;;;;7316489;19;20415;-56
2024/02/25 14:34:57;;;;;;;3.00;1.37;;;;;;;;;;7343423;19;20858;-58
2024/02/25 14:37:27;;;;;;;2.73;1.50;;;;;;;;;;7317398;19;20405;-57
2024/02/25 14:39:56;;;;;;;4.87;3.03;;;;;;;;;;7341343;19;20839;-58
2024/02/25 14:42:26;;;;;;;16.13;7.30;;;;;;;;;;7322795;19;20444;-59
2024/02/25 14:44:56;;;;;;;2.37;1.20;;;;;;;;;;7341900;19;20415;-57
2024/02/25 14:47:28;;;;;;;4.87;1.83;;;;;;;;;;7319762;19;20399;-57
2024/02/25 14:49:57;;;;;;;2.10;1.03;;;;;;;;;;7341728;19;20407;-60
2024/02/25 14:52:27;;;;;;;4.60;1.97;;;;;;;;;;7320527;19;20988;-57
2024/02/25 14:54:57;;;;;;;3.87;1.93;;;;;;;;;;7342920;19;20976;-59
2024/02/25 14:57:27;;;;;;;3.20;1.93;;;;;;;;;;7319419;19;20400;-59
2024/02/25 14:59:56;;;;;;;4.30;2.30;;;;;;;;;;7341405;19;20518;-58
2024/02/25 15:02:33;;;;;;;5.90;2.20;;;;;;;;;;7319527;19;20831;-60